Time;durP1;ratioP1;P1;durP2;ratioP2;P2;SDS_P1;SDS_P2;PMS_P1;PMS_P2;Temp;Humidity;BMP_temperature;BMP_pressure;BME280_temperature;BME280_humidity;BME280_pressure;Samples;Min_cycle;Max_cycle;Signal;HPM_P1;HPM_P2
2022/06/10 00:00:40;;;;;;;9.30;3.53;;;13.30;99.90;;;;;;5109496;27;20228;-75
2022/06/10 00:03:08;;;;;;;12.40;3.67;;;13.30;99.90;;;;;;5113643;28;20194;-75
2022/06/10 00:05:36;;;;;;;9.43;4.00;;;13.30;99.90;;;;;;5109537;28;20233;-75
2022/06/10 00:08:05;;;;;;;8.60;4.03;;;13.20;99.90;;;;;;5107942;28;20250;-75
2022/06/10 00:10:32;;;;;;;8.43;3.73;;;13.20;99.90;;;;;;5109074;28;20215;-74
2022/06/10 00:12:59;;;;;;;11.27;3.73;;;13.20;99.90;;;;;;5112114;28;20229;-74
2022/06/10 00:15:27;;;;;;;9.53;3.90;;;13.20;99.90;;;;;;5108798;28;20237;-74
2022/06/10 00:17:55;;;;;;;8.80;3.93;;;13.20;99.90;;;;;;5110566;27;20628;-75
2022/06/10 00:20:26;;;;;;;10.20;4.07;;;13.10;99.90;;;;;;5111596;28;20629;-75
2022/06/10 00:22:53;;;;;;;8.90;3.83;;;13.10;99.90;;;;;;5109311;28;20697;-75
2022/06/10 00:25:21;;;;;;;9.50;3.90;;;13.10;99.90;;;;;;5108872;28;20601;-75
2022/06/10 00:27:49;;;;;;;10.47;3.77;;;13.10;99.90;;;;;;5109898;27;20255;-75
2022/06/10 00:30:19;;;;;;;9.67;4.10;;;13.10;99.90;;;;;;5111690;27;20221;-74
2022/06/10 00:32:46;;;;;;;9.83;3.90;;;13.00;99.90;;;;;;5108591;28;20304;-75
2022/06/10 00:35:16;;;;;;;9.70;3.70;;;13.00;99.90;;;;;;5108001;28;20229;-74
2022/06/10 00:37:43;;;;;;;9.27;3.80;;;13.00;99.90;;;;;;5105577;28;20280;-74
2022/06/10 00:40:14;;;;;;;10.87;3.73;;;12.90;99.90;;;;;;5108442;28;20281;-75
2022/06/10 00:42:41;;;;;;;10.20;3.80;;;12.90;99.90;;;;;;5108529;28;20285;-75
2022/06/10 00:45:47;;;;;;;14.83;4.20;;;12.90;99.90;;;;;;5107992;28;20316;-75
2022/06/10 00:48:18;;;;;;;13.50;3.90;;;12.90;99.90;;;;;;5108520;28;20200;-75
2022/06/10 00:50:47;;;;;;;11.10;4.00;;;12.80;99.90;;;;;;5109980;27;20664;-74
2022/06/10 00:53:17;;;;;;;9.27;3.70;;;12.80;99.90;;;;;;5111145;28;20263;-74
2022/06/10 00:55:46;;;;;;;10.30;4.07;;;12.70;99.90;;;;;;5111257;27;20201;-75
2022/06/10 00:58:20;;;;;;;9.33;3.87;;;12.70;99.90;;;;;;5114672;27;20372;-74
2022/06/10 01:00:47;;;;;;;7.97;3.80;;;12.70;99.90;;;;;;5111747;27;20197;-75
2022/06/10 01:03:13;;;;;;;7.87;3.70;;;12.70;99.90;;;;;;5111765;27;20221;-75
2022/06/10 01:05:40;;;;;;;10.43;3.73;;;12.70;99.90;;;;;;5111801;27;20343;-74
2022/06/10 01:08:12;;;;;;;15.17;3.93;;;12.60;99.90;;;;;;5108432;28;20248;-75
2022/06/10 01:10:51;;;;;;;12.73;3.93;;;12.60;99.90;;;;;;5116133;27;20649;-75
2022/06/10 01:13:28;;;;;;;9.60;3.80;;;12.60;99.90;;;;;;5111668;27;20232;-75
2022/06/10 01:16:01;;;;;;;10.17;4.30;;;12.70;99.90;;;;;;5110492;28;20292;-75
2022/06/10 01:18:47;;;;;;;8.57;4.00;;;12.80;99.90;;;;;;5111791;27;20198;-75
2022/06/10 01:21:31;;;;;;;11.67;4.17;;;12.90;99.90;;;;;;5111484;28;20236;-74
2022/06/10 01:24:31;;;;;;;7.73;3.97;;;13.00;99.90;;;;;;5111392;28;20401;-74
2022/06/10 01:27:50;;;;;;;8.47;4.10;;;13.10;99.90;;;;;;5111145;27;21622;-74
2022/06/10 01:30:30;;;;;;;10.73;3.90;;;13.10;99.90;;;;;;5109666;28;20198;-74
2022/06/10 01:33:17;;;;;;;10.73;4.00;;;13.20;99.90;;;;;;5111212;28;20683;-75
2022/06/10 01:35:52;;;;;;;9.93;3.50;;;13.30;99.90;;;;;;5109952;28;20238;-75
2022/06/10 01:38:25;;;;;;;10.03;3.37;;;13.30;99.90;;;;;;5110509;28;20296;-75
2022/06/10 01:41:02;;;;;;;8.13;3.77;;;13.30;99.90;;;;;;5110844;28;20297;-75
2022/06/10 01:43:39;;;;;;;6.90;3.70;;;13.40;99.90;;;;;;5111027;27;20236;-75
2022/06/10 01:46:12;;;;;;;12.50;3.87;;;13.40;99.90;;;;;;5113828;27;20300;-75
2022/06/10 01:48:49;;;;;;;10.13;3.60;;;13.50;99.90;;;;;;5108408;27;20198;-75
2022/06/10 01:51:22;;;;;;;13.23;3.90;;;13.50;99.90;;;;;;5108966;27;20229;-75
2022/06/10 01:53:55;;;;;;;7.70;3.47;;;13.50;99.90;;;;;;5116594;27;20308;-75
2022/06/10 01:56:27;;;;;;;7.17;3.43;;;13.60;99.90;;;;;;5110000;27;20641;-75
2022/06/10 01:59:01;;;;;;;9.93;3.73;;;13.60;99.90;;;;;;5108428;28;20221;-75
2022/06/10 02:01:33;;;;;;;12.37;4.10;;;13.60;99.90;;;;;;5109301;28;20300;-74
2022/06/10 02:04:06;;;;;;;10.37;3.83;;;13.60;99.90;;;;;;5113062;27;20288;-75
2022/06/10 02:06:37;;;;;;;5.80;3.30;;;13.60;99.90;;;;;;5110543;28;20293;-75
2022/06/10 02:09:09;;;;;;;9.57;3.73;;;13.70;99.90;;;;;;5111205;27;20221;-74
2022/06/10 02:11:40;;;;;;;10.23;3.37;;;13.70;99.90;;;;;;5106829;28;20237;-75
2022/06/10 02:14:12;;;;;;;8.80;3.40;;;13.70;99.90;;;;;;5110660;28;20288;-74
2022/06/10 02:16:42;;;;;;;10.50;3.87;;;13.70;99.90;;;;;;5109901;28;20321;-74
2022/06/10 02:19:18;;;;;;;8.73;3.80;;;13.70;99.90;;;;;;5109503;27;20285;-75
2022/06/10 02:21:48;;;;;;;7.93;3.17;;;13.80;99.90;;;;;;5111168;27;20296;-75
2022/06/10 02:24:21;;;;;;;10.83;3.57;;;13.80;99.90;;;;;;5111936;27;20628;-74
2022/06/10 02:26:50;;;;;;;10.60;3.80;;;13.80;99.90;;;;;;5109611;28;20881;-74
2022/06/10 02:29:21;;;;;;;8.63;3.30;;;13.90;99.90;;;;;;5110019;28;20384;-75
2022/06/10 02:31:52;;;;;;;9.20;4.13;;;13.90;99.90;;;;;;5111433;27;20232;-75
2022/06/10 02:34:21;;;;;;;9.00;4.00;;;14.00;99.90;;;;;;5114896;27;20205;-75
2022/06/10 02:36:54;;;;;;;10.07;3.40;;;14.00;99.90;;;;;;5109442;27;20716;-74
2022/06/10 02:39:26;;;;;;;11.10;3.70;;;14.00;99.90;;;;;;5108926;27;20201;-74
2022/06/10 02:42:00;;;;;;;12.93;3.90;;;14.00;99.90;;;;;;5108853;28;20296;-74
2022/06/10 02:44:38;;;;;;;10.67;3.97;;;14.00;99.90;;;;;;5109386;28;20236;-74
2022/06/10 02:47:15;;;;;;;9.57;3.97;;;14.10;99.90;;;;;;5109672;28;20221;-75
2022/06/10 02:49:43;;;;;;;12.23;4.00;;;14.10;99.90;;;;;;5106261;28;20229;-75
2022/06/10 02:52:12;;;;;;;9.63;4.00;;;14.20;99.90;;;;;;5108753;28;20285;-75
2022/06/10 02:54:41;;;;;;;10.73;4.27;;;14.20;99.90;;;;;;5110293;27;20294;-75
2022/06/10 02:57:14;;;;;;;11.33;3.90;;;14.20;99.90;;;;;;5110022;27;20254;-75
2022/06/10 03:02:43;;;;;;;12.30;4.70;;;14.20;99.90;;;;;;5108126;27;20211;-74
2022/06/10 03:05:22;;;;;;;8.27;4.27;;;14.20;99.90;;;;;;5105675;28;20193;-74
2022/06/10 03:08:03;;;;;;;9.53;3.87;;;14.20;99.90;;;;;;5108011;28;20288;-75
2022/06/10 03:10:37;;;;;;;10.13;3.97;;;14.30;99.90;;;;;;5110150;27;20306;-74
2022/06/10 03:13:22;;;;;;;9.30;4.47;;;14.30;99.90;;;;;;5107644;27;20244;-75
2022/06/10 03:16:12;;;;;;;14.17;3.40;;;14.40;99.90;;;;;;5107985;28;20205;-74
2022/06/10 03:18:47;;;;;;;9.10;3.90;;;14.40;99.90;;;;;;5108191;27;20278;-75
2022/06/10 03:21:24;;;;;;;8.37;3.60;;;14.40;99.90;;;;;;5108602;28;20291;-74
2022/06/10 03:24:04;;;;;;;8.83;3.50;;;14.40;99.90;;;;;;5107051;28;20641;-74
2022/06/10 03:26:40;;;;;;;9.93;3.90;;;14.40;99.90;;;;;;5111362;28;20228;-75
2022/06/10 03:29:15;;;;;;;9.40;3.23;;;14.40;99.90;;;;;;5107879;27;20860;-75
2022/06/10 03:31:45;;;;;;;5.50;3.40;;;14.40;99.90;;;;;;5108521;28;20201;-75
2022/06/10 03:34:17;;;;;;;6.90;3.40;;;14.50;99.90;;;;;;5104686;28;20328;-75
2022/06/10 03:36:47;;;;;;;6.37;3.63;;;14.50;99.90;;;;;;5112889;28;20201;-74
2022/06/10 03:39:15;;;;;;;10.17;3.90;;;14.50;99.90;;;;;;5107698;28;20216;-74
2022/06/10 03:41:57;;;;;;;7.57;3.60;;;14.50;99.90;;;;;;5107775;28;20229;-75
2022/06/10 03:44:26;;;;;;;7.67;3.37;;;14.50;99.90;;;;;;5105599;28;20216;-74
2022/06/10 03:46:54;;;;;;;7.73;3.40;;;14.50;99.90;;;;;;5107492;28;20206;-75
2022/06/10 03:49:27;;;;;;;9.33;3.60;;;14.50;99.90;;;;;;5109510;28;20541;-75
2022/06/10 03:51:55;;;;;;;9.50;3.80;;;14.50;99.90;;;;;;5108869;28;20240;-75
2022/06/10 03:54:22;;;;;;;10.10;3.70;;;14.50;99.90;;;;;;5107558;28;20252;-74
2022/06/10 03:56:51;;;;;;;12.23;4.23;;;14.60;99.90;;;;;;5108999;28;20632;-75
2022/06/10 03:59:18;;;;;;;10.57;3.70;;;14.60;99.90;;;;;;5107970;28;20730;-75
2022/06/10 04:01:45;;;;;;;9.13;3.40;;;14.60;99.90;;;;;;5107063;28;20229;-75
2022/06/10 04:04:12;;;;;;;8.27;3.57;;;14.50;99.90;;;;;;5108435;28;20288;-74
2022/06/10 04:06:39;;;;;;;10.80;3.93;;;14.50;99.90;;;;;;5105711;28;20221;-75
2022/06/10 04:09:07;;;;;;;8.83;3.67;;;14.50;99.90;;;;;;5107787;28;20280;-75
2022/06/10 04:11:34;;;;;;;12.87;3.87;;;14.60;99.90;;;;;;5105703;28;20280;-75
2022/06/10 04:14:01;;;;;;;7.33;4.10;;;14.50;99.90;;;;;;5108208;28;20407;-75
2022/06/10 04:16:29;;;;;;;7.40;3.83;;;14.60;99.90;;;;;;5108606;28;20788;-75
2022/06/10 04:18:56;;;;;;;9.83;3.87;;;14.60;99.90;;;;;;5108378;27;20310;-75
2022/06/10 04:21:23;;;;;;;8.23;3.83;;;14.60;99.90;;;;;;5107612;28;20289;-75
2022/06/10 04:23:50;;;;;;;11.10;4.00;;;14.60;99.90;;;;;;5110607;28;20624;-74
2022/06/10 04:26:18;;;;;;;8.53;3.80;;;14.60;99.90;;;;;;5112185;28;20236;-75
2022/06/10 04:28:45;;;;;;;11.43;3.60;;;14.60;99.90;;;;;;5111918;28;20216;-75
2022/06/10 04:31:13;;;;;;;10.17;3.77;;;14.70;99.90;;;;;;5111839;28;20298;-75
2022/06/10 04:33:40;;;;;;;9.60;3.80;;;14.70;99.90;;;;;;5112292;28;20249;-75
2022/06/10 04:36:07;;;;;;;9.83;3.60;;;14.70;99.90;;;;;;5111152;28;20204;-75
2022/06/10 04:38:34;;;;;;;9.90;3.90;;;14.80;99.90;;;;;;5111864;28;20288;-75
2022/06/10 04:41:01;;;;;;;10.17;3.50;;;14.80;99.90;;;;;;5112734;27;20206;-75
2022/06/10 04:43:29;;;;;;;7.77;3.90;;;14.90;99.90;;;;;;5112006;27;20284;-75
2022/06/10 04:45:58;;;;;;;9.80;4.33;;;14.90;99.90;;;;;;5109573;28;20316;-75
2022/06/10 04:48:25;;;;;;;10.50;4.20;;;14.90;99.90;;;;;;5112869;27;20233;-75
2022/06/10 04:50:52;;;;;;;11.03;4.07;;;14.90;99.90;;;;;;5111157;27;20277;-75
2022/06/10 04:53:19;;;;;;;10.03;3.80;;;14.90;99.90;;;;;;5110636;27;20249;-75
2022/06/10 04:55:46;;;;;;;7.23;3.80;;;15.00;99.90;;;;;;5110989;28;20237;-74
2022/06/10 04:58:13;;;;;;;8.60;3.67;;;15.00;99.90;;;;;;5111056;27;20201;-75
2022/06/10 05:00:45;;;;;;;14.53;3.97;;;15.00;99.90;;;;;;5112569;27;20285;-75
2022/06/10 05:03:12;;;;;;;9.13;3.60;;;15.00;99.90;;;;;;5111806;27;20224;-75
2022/06/10 05:05:39;;;;;;;9.70;3.70;;;14.90;99.90;;;;;;5105518;27;20680;-76
2022/06/10 05:08:08;;;;;;;10.43;3.73;;;14.90;99.90;;;;;;5111417;27;20193;-76
2022/06/10 05:10:35;;;;;;;9.17;3.80;;;14.90;99.90;;;;;;5110753;28;20289;-75
2022/06/10 05:13:02;;;;;;;8.77;3.97;;;14.90;99.90;;;;;;5110426;28;20321;-75
2022/06/10 05:15:29;;;;;;;9.00;4.07;;;14.90;99.90;;;;;;5109937;27;20756;-75
2022/06/10 05:17:59;;;;;;;9.70;3.93;;;14.90;99.90;;;;;;5110623;27;20296;-76
2022/06/10 05:20:29;;;;;;;13.57;4.13;;;14.90;99.90;;;;;;5114523;27;20197;-76
2022/06/10 05:22:56;;;;;;;11.23;4.40;;;15.00;99.90;;;;;;5111359;27;20229;-74
2022/06/10 05:25:23;;;;;;;8.97;4.00;;;15.00;99.90;;;;;;5111652;27;20626;-75
2022/06/10 05:27:50;;;;;;;11.30;4.23;;;15.00;99.90;;;;;;5112781;27;20659;-75
2022/06/10 05:30:20;;;;;;;10.80;4.13;;;15.10;99.90;;;;;;5109144;27;20284;-76
2022/06/10 05:32:47;;;;;;;10.13;4.00;;;15.10;99.90;;;;;;5107042;28;20341;-75
2022/06/10 05:35:16;;;;;;;9.17;3.97;;;15.20;99.90;;;;;;5108932;27;20292;-75
2022/06/10 05:37:43;;;;;;;9.40;4.03;;;15.50;99.90;;;;;;5112081;27;20950;-75
2022/06/10 05:40:12;;;;;;;8.20;3.63;;;15.50;99.90;;;;;;5109802;27;20687;-75
2022/06/10 05:42:40;;;;;;;9.90;4.07;;;15.50;99.90;;;;;;5104704;28;20284;-75
2022/06/10 05:45:08;;;;;;;10.67;4.10;;;15.90;99.90;;;;;;5102079;27;20312;-75
2022/06/10 05:47:36;;;;;;;8.57;3.40;;;16.10;99.90;;;;;;5105852;27;20206;-76
2022/06/10 05:50:06;;;;;;;8.73;3.30;;;16.10;99.90;;;;;;5111877;28;20221;-76
2022/06/10 05:52:35;;;;;;;7.10;3.17;;;16.00;99.90;;;;;;5116529;27;20205;-76
2022/06/10 05:55:06;;;;;;;7.83;3.03;;;16.20;99.90;;;;;;5113236;27;20702;-76
2022/06/10 05:57:33;;;;;;;10.63;3.50;;;16.30;99.90;;;;;;5112500;27;20200;-76
2022/06/10 06:00:00;;;;;;;6.27;2.93;;;16.30;99.90;;;;;;5112489;27;20252;-76
2022/06/10 06:02:27;;;;;;;4.97;2.90;;;16.40;99.90;;;;;;5117361;27;20285;-76
2022/06/10 06:04:54;;;;;;;7.13;2.57;;;16.30;99.90;;;;;;5111489;27;20194;-76
2022/06/10 06:07:24;;;;;;;9.33;2.80;;;16.40;99.90;;;;;;5113342;27;20788;-76
2022/06/10 06:09:53;;;;;;;6.53;2.80;;;16.50;99.90;;;;;;5115598;27;20733;-76
2022/06/10 06:12:21;;;;;;;7.77;2.77;;;16.50;99.90;;;;;;5114790;27;20217;-76
2022/06/10 06:14:49;;;;;;;4.80;2.80;;;16.50;99.90;;;;;;5110649;27;20452;-76
2022/06/10 06:17:16;;;;;;;5.50;3.00;;;16.50;99.90;;;;;;5113053;28;20619;-76
2022/06/10 06:19:43;;;;;;;6.63;2.73;;;16.40;99.90;;;;;;5111808;28;20242;-76
2022/06/10 06:22:10;;;;;;;6.50;2.60;;;16.50;99.90;;;;;;5112687;27;20272;-76
2022/06/10 06:24:38;;;;;;;5.37;2.90;;;16.50;99.90;;;;;;5113310;27;20276;-76
2022/06/10 06:27:09;;;;;;;7.57;2.80;;;16.50;99.90;;;;;;5112743;28;20193;-76
2022/06/10 06:29:36;;;;;;;5.03;2.60;;;16.80;99.90;;;;;;5113698;27;20280;-76
2022/06/10 06:32:04;;;;;;;5.47;2.57;;;17.30;99.90;;;;;;5107094;27;20290;-76
2022/06/10 06:34:30;;;;;;;5.10;2.60;;;17.70;99.90;;;;;;5107707;27;20309;-76
2022/06/10 06:36:58;;;;;;;12.53;3.00;;;17.60;99.90;;;;;;5120963;27;20462;-76
2022/06/10 06:39:26;;;;;;;6.53;2.63;;;17.90;99.90;;;;;;5129120;27;20725;-76
2022/06/10 06:41:55;;;;;;;7.32;2.70;;;18.40;99.90;;;;;;5123388;27;20289;-76
2022/06/10 06:44:23;;;;;;;5.07;1.95;;;19.70;99.90;;;;;;5100882;28;20300;-76
2022/06/10 06:46:50;;;;;;;4.07;1.70;;;20.20;99.90;;;;;;5104135;27;20641;-77
2022/06/10 06:49:27;;;;;;;4.90;1.42;;;20.80;99.90;;;;;;5103407;27;20194;-77
2022/06/10 06:51:55;;;;;;;2.63;1.20;;;23.00;99.90;;;;;;5109752;27;20274;-76
2022/06/10 06:54:24;;;;;;;2.55;1.00;;;23.60;99.90;;;;;;5107451;27;20577;-77
2022/06/10 06:56:51;;;;;;;2.00;1.00;;;23.80;99.90;;;;;;5110841;28;20258;-77
2022/06/10 06:59:18;;;;;;;2.60;1.15;;;23.80;99.90;;;;;;5127779;27;20207;-77
2022/06/10 07:01:46;;;;;;;3.40;1.45;;;23.70;99.90;;;;;;5101689;27;20198;-77
2022/06/10 07:04:13;;;;;;;5.05;1.40;;;22.30;99.90;;;;;;5112147;27;20285;-77
2022/06/10 07:06:42;;;;;;;3.47;1.42;;;21.60;99.90;;;;;;5108462;27;20585;-77
2022/06/10 07:09:09;;;;;;;3.63;1.50;;;21.10;99.90;;;;;;5107719;27;20206;-77
2022/06/10 07:11:38;;;;;;;2.67;1.75;;;20.60;99.90;;;;;;5108765;27;20260;-77
2022/06/10 07:14:05;;;;;;;3.03;1.20;;;21.10;99.90;;;;;;5125559;27;20219;-77
2022/06/10 07:16:32;;;;;;;2.80;1.10;;;22.10;99.90;;;;;;5127849;27;20716;-77
2022/06/10 07:19:01;;;;;;;3.08;1.30;;;22.00;99.90;;;;;;5112196;28;20305;-77
2022/06/10 07:21:28;;;;;;;3.03;1.60;;;21.60;99.90;;;;;;5111068;28;20528;-77
2022/06/10 07:23:55;;;;;;;3.88;1.73;;;20.90;99.90;;;;;;5122205;27;20193;-77
2022/06/10 07:26:23;;;;;;;2.05;1.50;;;21.00;99.90;;;;;;5109207;28;20292;-77
2022/06/10 07:28:50;;;;;;;2.95;1.08;;;20.90;99.90;;;;;;5091367;28;20199;-76
2022/06/10 07:31:17;;;;;;;2.38;1.20;;;20.90;99.90;;;;;;5091111;28;20676;-77
2022/06/10 07:33:44;;;;;;;2.38;1.10;;;20.80;99.90;;;;;;5091083;28;20246;-77
2022/06/10 07:36:12;;;;;;;2.65;1.10;;;21.30;99.90;;;;;;5099593;27;20272;-77
2022/06/10 07:38:39;;;;;;;3.90;1.55;;;21.70;99.90;;;;;;5132424;27;20291;-77
2022/06/10 07:43:51;;;;;;;2.22;1.13;;;20.50;99.90;;;;;;5111633;28;20189;-76
2022/06/10 07:46:20;;;;;;;3.50;1.30;;;19.70;99.90;;;;;;5111693;28;20248;-77
2022/06/10 07:48:47;;;;;;;5.60;1.60;;;19.30;99.90;;;;;;5091244;28;20230;-77
2022/06/10 07:51:16;;;;;;;3.35;1.48;;;19.30;99.90;;;;;;5091280;28;20284;-76
2022/06/10 07:53:44;;;;;;;2.88;1.35;;;20.50;99.90;;;;;;5091532;28;20256;-77
2022/06/10 07:56:13;;;;;;;2.53;1.10;;;22.10;99.90;;;;;;5096087;28;20723;-77
2022/06/10 07:58:40;;;;;;;3.00;1.00;;;22.60;99.90;;;;;;5135008;27;20207;-77
2022/06/10 08:01:07;;;;;;;4.22;1.13;;;22.90;99.90;;;;;;5135696;27;20228;-77
2022/06/10 08:03:34;;;;;;;2.10;0.88;;;22.80;99.90;;;;;;5124530;27;20749;-77
2022/06/10 08:06:01;;;;;;;1.92;0.90;;;22.60;99.90;;;;;;5131751;27;20280;-77
2022/06/10 08:08:30;;;;;;;3.10;1.05;;;22.60;99.90;;;;;;5125622;27;20197;-77
2022/06/10 08:10:57;;;;;;;2.92;0.90;;;21.90;99.90;;;;;;5119447;27;20276;-77
2022/06/10 08:13:24;;;;;;;4.22;1.30;;;21.20;99.90;;;;;;5115129;28;20285;-77
2022/06/10 08:15:51;;;;;;;3.08;1.15;;;20.40;99.90;;;;;;5117176;27;20305;-77
2022/06/10 08:18:20;;;;;;;3.92;1.10;;;20.30;99.90;;;;;;5115012;28;20280;-77
2022/06/10 08:23:37;;;;;;;3.65;1.05;;;20.30;99.90;;;;;;5117004;27;20200;-76
2022/06/10 08:26:07;;;;;;;3.17;1.17;;;20.30;99.90;;;;;;5118562;27;20247;-76
2022/06/10 08:28:34;;;;;;;2.05;1.30;;;20.10;99.90;;;;;;5117603;27;20205;-76
2022/06/10 08:31:01;;;;;;;2.78;1.20;;;20.00;99.90;;;;;;5120341;27;20653;-77
2022/06/10 08:33:28;;;;;;;2.42;1.30;;;20.00;99.90;;;;;;5114708;27;20633;-77
2022/06/10 08:35:55;;;;;;;4.45;1.35;;;20.50;99.90;;;;;;5114909;28;20639;-76
2022/06/10 08:38:22;;;;;;;2.13;1.20;;;20.70;99.90;;;;;;5105995;28;20281;-77
2022/06/10 08:40:58;;;;;;;4.22;1.23;;;20.70;99.90;;;;;;5114395;28;20292;-76
2022/06/10 08:43:49;;;;;;;2.63;0.88;;;20.70;99.90;;;;;;5113966;28;20203;-77
2022/06/10 08:46:27;;;;;;;3.00;0.82;;;20.40;99.90;;;;;;5114418;28;20277;-76
2022/06/10 08:49:22;;;;;;;1.48;0.70;;;20.40;99.90;;;;;;5120807;27;20283;-77
2022/06/10 08:51:57;;;;;;;1.58;0.80;;;20.10;99.90;;;;;;5127634;27;20201;-77
2022/06/10 08:54:32;;;;;;;2.55;0.90;;;20.00;99.90;;;;;;5113367;28;20395;-77
2022/06/10 08:57:07;;;;;;;1.60;0.80;;;19.90;99.90;;;;;;5114130;28;20259;-77
2022/06/10 08:59:40;;;;;;;2.65;0.73;;;19.70;99.90;;;;;;5109241;28;20284;-76
2022/06/10 09:02:14;;;;;;;1.55;0.77;;;19.50;99.90;;;;;;5111325;28;20217;-76
2022/06/10 09:04:52;;;;;;;1.23;0.60;;;19.70;99.90;;;;;;5112812;27;20201;-76
2022/06/10 09:07:25;;;;;;;2.60;0.80;;;20.40;99.90;;;;;;5113846;28;20189;-76
2022/06/10 09:09:53;;;;;;;2.78;0.88;;;20.70;99.90;;;;;;5112596;28;20233;-76
2022/06/10 09:12:29;;;;;;;1.70;0.68;;;20.90;99.90;;;;;;5113269;28;20285;-76
2022/06/10 09:15:03;;;;;;;2.65;0.88;;;20.80;99.90;;;;;;5111945;28;20854;-77
2022/06/10 09:17:37;;;;;;;1.42;1.10;;;20.20;99.90;;;;;;5113393;28;20661;-76
2022/06/10 09:20:12;;;;;;;2.78;1.00;;;19.60;99.90;;;;;;5113069;28;20721;-76
2022/06/10 09:22:46;;;;;;;2.05;1.00;;;19.20;99.90;;;;;;5110927;28;20225;-77
2022/06/10 09:25:18;;;;;;;2.92;0.88;;;18.80;99.90;;;;;;5110832;27;20248;-76
2022/06/10 09:27:50;;;;;;;2.85;1.35;;;18.70;99.90;;;;;;5101652;27;20581;-77
2022/06/10 09:30:21;;;;;;;1.65;0.80;;;19.10;99.90;;;;;;5093084;28;20202;-76
2022/06/10 09:32:56;;;;;;;1.92;0.63;;;19.80;99.90;;;;;;5113042;28;20227;-76
2022/06/10 09:35:29;;;;;;;2.10;0.60;;;20.70;99.90;;;;;;5107780;28;20213;-76
2022/06/10 09:38:03;;;;;;;1.50;0.70;;;21.90;99.90;;;;;;5113264;27;20375;-77
2022/06/10 09:40:37;;;;;;;0.93;0.50;;;21.90;99.90;;;;;;5113098;28;20228;-77
2022/06/10 09:43:36;;;;;;;1.83;0.52;;;21.70;99.90;;;;;;5109872;28;20657;-77
2022/06/10 09:46:24;;;;;;;1.95;0.90;;;20.70;99.90;;;;;;5085624;28;20213;-76
2022/06/10 09:49:07;;;;;;;1.13;0.65;;;20.60;99.90;;;;;;5112228;28;20201;-76
2022/06/10 09:51:42;;;;;;;1.08;0.60;;;20.50;99.90;;;;;;5111493;28;20254;-76
2022/06/10 09:54:27;;;;;;;1.33;0.93;;;20.30;99.90;;;;;;5110901;28;20276;-76
2022/06/10 09:57:33;;;;;;;1.15;0.80;;;20.40;99.90;;;;;;5112689;27;20228;-76
2022/06/10 10:00:11;;;;;;;2.17;0.90;;;20.90;99.90;;;;;;5070209;28;20643;-76
2022/06/10 10:02:47;;;;;;;1.90;0.75;;;21.80;99.90;;;;;;5070550;28;20202;-77
2022/06/10 10:05:30;;;;;;;1.92;1.17;;;22.40;99.90;;;;;;5069881;28;20244;-77
2022/06/10 10:08:03;;;;;;;2.10;1.13;;;22.50;99.90;;;;;;5070317;28;20206;-77
2022/06/10 10:10:34;;;;;;;2.15;0.80;;;23.20;99.90;;;;;;5069978;28;20199;-77
2022/06/10 10:13:41;;;;;;;1.60;0.90;;;24.20;99.90;;;;;;5068141;28;20207;-77
2022/06/10 10:16:21;;;;;;;2.53;0.70;;;25.10;99.90;;;;;;5064769;28;20258;-77
2022/06/10 10:19:07;;;;;;;1.17;0.60;;;27.00;99.90;;;;;;5050294;28;20291;-77
2022/06/10 10:21:41;;;;;;;1.00;0.60;;;26.40;99.90;;;;;;5063831;28;20290;-77
2022/06/10 10:24:16;;;;;;;2.08;1.10;;;25.70;99.90;;;;;;5069788;28;20231;-77
2022/06/10 10:26:45;;;;;;;1.65;0.90;;;24.30;99.90;;;;;;5049798;28;20290;-77
2022/06/10 10:29:17;;;;;;;0.98;0.50;;;23.50;99.90;;;;;;5065668;28;20287;-77
2022/06/10 10:31:50;;;;;;;0.60;0.40;;;21.10;99.90;;;;;;5068957;28;21190;-76
2022/06/10 10:34:19;;;;;;;2.47;1.10;;;;;;;;;;5051859;28;20291;-77
2022/06/10 10:36:48;;;;;;;1.50;1.10;;;;;;;;;;5072281;28;20713;-76
2022/06/10 10:39:18;;;;;;;1.15;0.73;;;;;;;;;;5123402;27;20328;-77
2022/06/10 10:41:46;;;;;;;1.33;0.80;;;;;;;;;;5113276;27;20233;-76
2022/06/10 10:44:25;;;;;;;2.78;0.90;;;;;;;;;;5124412;27;20300;-77
2022/06/10 10:47:00;;;;;;;2.70;0.88;;;;;;;;;;5125017;27;20204;-76
2022/06/10 10:49:29;;;;;;;2.05;0.75;;;;;;;;;;5133547;27;20619;-77
2022/06/10 10:51:57;;;;;;;1.17;0.70;;;;;;;;;;5121205;27;20202;-77
2022/06/10 10:54:28;;;;;;;6.82;2.10;;;;;;;;;;5123326;27;20276;-77
2022/06/10 10:56:55;;;;;;;14.95;3.00;;;;;;;;;;5125388;27;20285;-76
2022/06/10 10:59:24;;;;;;;32.97;9.25;;;;;;;;;;5091461;28;20285;-76
2022/06/10 11:01:54;;;;;;;3.00;1.50;;;;;;;;;;5116400;27;20296;-76
2022/06/10 11:04:29;;;;;;;7.75;1.63;;;;;;;;;;5114908;27;20206;-76
2022/06/10 11:07:00;;;;;;;0.85;0.80;;;;;;;;;;5112823;27;20255;-77
2022/06/10 11:09:28;;;;;;;4.20;1.42;;;;;;;;;;5110509;28;20194;-77
2022/06/10 11:11:57;;;;;;;2.53;0.90;;;;;;;;;;5111789;28;20193;-77
2022/06/10 11:14:27;;;;;;;1.38;0.82;;;;;;;;;;5116641;27;20288;-77
2022/06/10 11:17:02;;;;;;;1.20;0.63;;;;;;;;;;5131837;27;20316;-76
2022/06/10 11:19:48;;;;;;;1.77;0.77;;;;;;;;;;5132651;27;20579;-76
2022/06/10 11:22:29;;;;;;;1.50;0.90;;;;;;;;;;5132228;27;20251;-77
2022/06/10 11:25:15;;;;;;;2.15;0.90;;;;;;;;;;5123943;27;20671;-77
2022/06/10 11:27:43;;;;;;;2.83;0.95;;;;;;;;;;5132352;27;20232;-77
2022/06/10 11:30:19;;;;;;;1.55;0.88;;;;;;;;;;5132291;27;20228;-77
2022/06/10 11:32:55;;;;;;;0.90;0.80;;;;;;;;;;5127234;27;20238;-77
2022/06/10 11:35:28;;;;;;;2.40;1.02;;;;;;;;;;5116252;27;20212;-77
2022/06/10 11:37:58;;;;;;;1.45;0.80;;;;;;;;;;5132117;27;20192;-76
2022/06/10 11:40:26;;;;;;;0.95;0.80;;;;;;;;;;5131587;27;20223;-77
2022/06/10 11:42:58;;;;;;;1.58;0.70;;;;;;;;;;5132473;27;20228;-77
2022/06/10 11:45:26;;;;;;;1.52;0.73;;;;;;;;;;5120831;27;20249;-76
2022/06/10 11:47:56;;;;;;;2.20;0.80;;;;;;;;;;5112061;28;20285;-76
2022/06/10 11:50:27;;;;;;;1.13;0.65;;;;;;;;;;5124434;28;20223;-77
2022/06/10 11:52:58;;;;;;;2.38;0.80;;;;;;;;;;5090920;28;20232;-77
2022/06/10 11:55:27;;;;;;;1.55;0.60;;;;;;;;;;5090860;28;20253;-77
2022/06/10 12:00:46;;;;;;;0.60;0.50;;;;;;;;;;5114021;28;20200;-77
2022/06/10 12:03:17;;;;;;;1.38;0.60;;;;;;;;;;5091913;28;20198;-77
2022/06/10 12:05:48;;;;;;;1.77;0.82;;;;;;;;;;5120097;28;20613;-77
2022/06/10 12:08:21;;;;;;;1.27;0.70;;;;;;;;;;5132176;27;20220;-77
2022/06/10 12:10:58;;;;;;;1.60;0.70;;;;;;;;;;5131825;27;20283;-77
2022/06/10 12:13:26;;;;;;;2.17;0.70;;;;;;;;;;5132124;27;20228;-76
2022/06/10 12:15:55;;;;;;;1.50;0.70;;;;;;;;;;5123323;27;20531;-77
2022/06/10 12:18:23;;;;;;;1.15;0.60;;;;;;;;;;5126994;28;20289;-76
2022/06/10 12:20:53;;;;;;;1.42;0.60;;;;;;;;;;5110367;28;20237;-76
2022/06/10 12:23:24;;;;;;;0.82;0.63;;;;;;;;;;5111842;28;20296;-77
2022/06/10 12:25:53;;;;;;;1.67;0.50;;;;;;;;;;5111219;28;20201;-77
2022/06/10 12:28:26;;;;;;;1.15;0.47;;;;;;;;;;5110737;28;20285;-77
2022/06/10 12:31:00;;;;;;;1.02;0.50;;;;;;;;;;5111162;28;20267;-77
2022/06/10 12:33:32;;;;;;;1.45;0.60;;;;;;;;;;5111056;28;20201;-76
2022/06/10 12:35:59;;;;;;;1.83;0.40;;;;;;;;;;5110987;27;20253;-77
2022/06/10 12:38:32;;;;;;;1.67;0.50;;;;;;;;;;5126336;28;20843;-76
2022/06/10 12:41:03;;;;;;;0.70;0.40;;;;;;;;;;5128774;27;20240;-77
2022/06/10 12:43:31;;;;;;;0.95;0.50;;;;;;;;;;5111778;28;20284;-77
2022/06/10 12:46:00;;;;;;;0.45;0.40;;;;;;;;;;5123655;27;20301;-76
2022/06/10 12:48:29;;;;;;;1.98;0.60;;;;;;;;;;5133639;27;20233;-77
2022/06/10 12:50:57;;;;;;;1.10;0.70;;;;;;;;;;5134786;27;20287;-77
2022/06/10 12:53:39;;;;;;;1.85;0.80;;;;;;;;;;5135173;27;20650;-77
2022/06/10 12:56:19;;;;;;;1.45;0.80;;;;;;;;;;5130414;27;20301;-76
2022/06/10 12:58:49;;;;;;;2.47;0.70;;;;;;;;;;5126741;27;20667;-77
2022/06/10 13:01:21;;;;;;;0.80;0.68;;;;;;;;;;5131704;27;20204;-77
2022/06/10 13:03:49;;;;;;;0.80;0.50;;;;;;;;;;5099913;28;20236;-77
2022/06/10 13:06:27;;;;;;;0.82;0.60;;;;;;;;;;5120613;27;20741;-77
2022/06/10 13:08:57;;;;;;;0.50;0.50;;;;;;;;;;5134766;27;20676;-77
2022/06/10 13:11:46;;;;;;;1.02;0.50;;;;;;;;;;5131108;27;20190;-77
2022/06/10 13:14:19;;;;;;;1.02;0.60;;;;;;;;;;5114040;28;20213;-77
2022/06/10 13:16:48;;;;;;;1.73;0.50;;;;;;;;;;5097365;28;20222;-77
2022/06/10 13:19:35;;;;;;;0.60;0.50;;;;;;;;;;5104308;28;20204;-76
2022/06/10 13:22:35;;;;;;;1.45;0.50;;;23.20;99.90;;;;;;5114028;28;20635;-76
2022/06/10 13:25:24;;;;;;;2.22;0.80;;;23.00;99.90;;;;;;5093230;28;20285;-76
2022/06/10 13:27:52;;;;;;;2.03;0.60;;;22.00;99.90;;;;;;5094011;28;20199;-77
2022/06/10 13:30:21;;;;;;;0.60;0.60;;;;;;;;;;5093904;28;20242;-77
2022/06/10 13:32:52;;;;;;;0.73;0.60;;;22.10;99.90;;;;;;5093625;28;20244;-77
2022/06/10 13:35:21;;;;;;;0.65;0.60;;;22.10;99.90;;;;;;5129725;27;20209;-77
2022/06/10 13:37:50;;;;;;;1.38;0.43;;;;;;;;;;5133396;27;20197;-77
2022/06/10 13:40:20;;;;;;;0.70;0.60;;;22.00;99.90;;;;;;5125470;27;20292;-77
2022/06/10 13:42:54;;;;;;;1.33;0.50;;;22.00;99.90;;;;;;5114692;28;20293;-77